Time;durP1;ratioP1;P1;durP2;ratioP2;P2;SDS_P1;SDS_P2;PMS_P1;PMS_P2;Temp;Humidity;BMP_temperature;BMP_pressure;BME280_temperature;BME280_humidity;BME280_pressure;Samples;Min_cycle;Max_cycle;Signal;HPM_P1;HPM_P2
2021/03/06 00:00:39;;;;;;;3.35;2.50;;;;;;;3.00;71.58;101584.84;1718152;81;25734;-58
2021/03/06 00:03:10;;;;;;;3.42;2.60;;;;;;;3.01;71.55;101594.52;1738199;82;25699;-58
2021/03/06 00:05:40;;;;;;;3.92;2.80;;;;;;;3.00;71.40;101591.49;1660312;86;25776;-58
2021/03/06 00:08:09;;;;;;;3.67;2.80;;;;;;;3.02;71.80;101584.77;1720270;83;27645;-58
2021/03/06 00:10:37;;;;;;;4.25;3.15;;;;;;;3.00;71.76;101591.49;1720216;83;25760;-58
2021/03/06 00:13:08;;;;;;;3.60;2.70;;;;;;;2.97;71.82;101589.81;1720376;83;25645;-58
2021/03/06 00:15:36;;;;;;;3.95;2.83;;;;;;;2.96;71.85;101581.91;1720420;83;25905;-58
2021/03/06 00:18:06;;;;;;;2.98;2.62;;;;;;;2.95;71.85;101589.04;1720585;81;25743;-58
2021/03/06 00:20:34;;;;;;;2.60;2.37;;;;;;;2.94;71.91;101589.97;1720457;83;27678;-58
2021/03/06 00:23:05;;;;;;;4.42;3.08;;;;;;;2.94;72.21;101590.41;1720358;81;26109;-58
2021/03/06 00:25:33;;;;;;;3.87;2.62;;;;;;;2.95;71.96;101590.81;1720468;83;25723;-58
2021/03/06 00:28:03;;;;;;;3.52;2.80;;;;;;;2.98;72.24;101586.70;1722353;81;25748;-58
2021/03/06 00:30:32;;;;;;;2.83;2.55;;;;;;;2.97;72.45;101586.30;1762614;81;26088;-58
2021/03/06 00:33:05;;;;;;;2.60;2.08;;;;;;;2.95;72.02;101593.02;1762480;81;27557;-58
2021/03/06 00:35:35;;;;;;;2.95;2.52;;;;;;;2.93;71.92;101593.55;1762303;81;26339;-58
2021/03/06 00:38:03;;;;;;;3.27;2.12;;;;;;;2.93;71.92;101596.20;1765143;79;25691;-58
2021/03/06 00:40:33;;;;;;;3.58;2.30;;;;;;;2.95;72.07;101600.12;1793861;79;25733;-58
2021/03/06 00:43:01;;;;;;;2.42;2.22;;;;;;;2.94;71.73;101609.02;1793806;79;25646;-57
2021/03/06 00:45:30;;;;;;;2.40;2.10;;;;;;;2.88;71.72;101614.13;1793889;79;26773;-58
2021/03/06 00:47:59;;;;;;;2.80;2.22;;;;;;;2.79;71.41;101607.42;1793841;79;25668;-57
2021/03/06 00:50:35;;;;;;;2.37;2.05;;;;;;;2.78;71.71;101613.67;1793822;79;25753;-58
2021/03/06 00:53:05;;;;;;;2.10;1.90;;;;;;;2.71;71.60;101616.19;1793693;78;25793;-58
2021/03/06 00:55:34;;;;;;;3.80;2.10;;;;;;;2.70;71.96;101611.80;1796624;78;25743;-58
2021/03/06 00:58:04;;;;;;;2.80;1.75;;;;;;;2.69;71.86;101623.36;1750183;81;27652;-58
2021/03/06 01:00:32;;;;;;;1.87;1.77;;;;;;;2.65;71.95;101619.97;1765337;81;25718;-57
2021/03/06 01:03:03;;;;;;;2.20;1.70;;;;;;;2.65;71.99;101616.42;1721824;81;25666;-58
2021/03/06 01:05:32;;;;;;;2.12;1.82;;;;;;;2.67;72.36;101618.56;1712272;82;25701;-57
2021/03/06 01:08:06;;;;;;;2.22;1.92;;;;;;;2.62;71.90;101617.91;1707482;83;25706;-58
2021/03/06 01:10:41;;;;;;;2.08;1.87;;;;;;;2.61;71.94;101630.30;1710673;83;27602;-57
2021/03/06 01:13:10;;;;;;;1.90;1.55;;;;;;;2.62;72.25;101625.88;1728265;80;26083;-57
2021/03/06 01:15:42;;;;;;;2.77;2.20;;;;;;;2.64;72.56;101620.89;1718019;82;25854;-57
2021/03/06 01:18:14;;;;;;;2.10;1.85;;;;;;;2.61;71.98;101631.62;1740293;82;25645;-58
2021/03/06 01:20:42;;;;;;;2.00;1.80;;;;;;;2.59;71.99;101634.84;1740295;82;25438;-58
2021/03/06 01:23:11;;;;;;;2.70;2.02;;;;;;;2.54;71.92;101631.97;1740182;82;28519;-57
2021/03/06 01:25:40;;;;;;;2.08;1.47;;;;;;;2.47;71.79;101630.02;1740004;82;26084;-57
2021/03/06 01:28:09;;;;;;;2.08;1.80;;;;;;;2.39;71.84;101635.62;1739159;82;25875;-58
2021/03/06 01:30:38;;;;;;;2.83;1.70;;;;;;;2.34;71.81;101637.14;1753546;81;26545;-58
2021/03/06 01:33:09;;;;;;;2.72;2.20;;;;;;;2.34;71.70;101641.61;1767349;81;25779;-59
2021/03/06 01:35:37;;;;;;;4.45;2.12;;;;;;;2.32;71.88;101652.74;1785513;80;27529;-58
2021/03/06 01:38:05;;;;;;;3.40;2.05;;;;;;;2.29;71.83;101650.20;1750830;81;26336;-58
2021/03/06 01:40:36;;;;;;;2.05;1.80;;;;;;;2.26;71.76;101653.00;1767351;79;25671;-58
2021/03/06 01:43:17;;;;;;;3.22;1.50;;;;;;;2.23;72.02;101650.45;1748324;82;25759;-58
2021/03/06 01:45:45;;;;;;;2.75;1.67;;;;;;;2.24;71.77;101656.17;1748155;82;26081;-57
2021/03/06 01:48:15;;;;;;;2.12;1.77;;;;;;;2.24;72.19;101652.19;1748454;82;27538;-58
2021/03/06 01:50:45;;;;;;;2.87;2.00;;;;;;;2.23;72.32;101658.41;1748094;82;26099;-57
2021/03/06 01:53:15;;;;;;;1.80;1.70;;;;;;;2.19;72.14;101661.66;1748469;81;25717;-58
2021/03/06 01:55:47;;;;;;;3.47;1.50;;;;;;;2.17;72.42;101664.83;1744069;82;25701;-58
2021/03/06 01:58:17;;;;;;;2.02;1.77;;;;;;;2.14;72.24;101672.93;1718496;81;25662;-57
2021/03/06 02:00:45;;;;;;;4.50;1.77;;;;;;;2.13;72.47;101676.03;1700067;83;27608;-57
2021/03/06 02:03:15;;;;;;;4.37;2.12;;;;;;;2.13;72.45;101682.66;1718424;82;25743;-57
2021/03/06 02:05:44;;;;;;;2.87;1.55;;;;;;;2.15;73.06;101687.46;1718389;83;25771;-58
2021/03/06 02:08:12;;;;;;;3.65;1.65;;;;;;;2.12;72.63;101690.22;1718562;83;25680;-58
2021/03/06 02:10:44;;;;;;;2.42;1.60;;;;;;;2.11;72.86;101708.88;1718622;83;25664;-57
2021/03/06 02:13:24;;;;;;;3.42;1.82;;;;;;;2.04;72.60;101716.20;1738769;82;28459;-58
2021/03/06 02:16:34;;;;;;;1.52;1.32;;;;;;;2.00;72.57;101717.25;1748360;81;25687;-57
2021/03/06 02:19:28;;;;;;;3.47;1.85;;;;;;;1.97;73.02;101723.52;1746373;80;25628;-58
2021/03/06 02:22:24;;;;;;;3.98;2.10;;;;;;;1.92;73.04;101735.25;1743476;82;26004;-57
2021/03/06 02:25:28;;;;;;;4.00;2.17;;;;;;;1.84;73.11;101732.87;1744233;82;25669;-57
2021/03/06 02:28:22;;;;;;;3.22;2.10;;;;;;;1.76;73.25;101735.78;1744195;81;27549;-56
2021/03/06 02:30:54;;;;;;;2.72;2.10;;;;;;;1.69;73.40;101737.81;1756547;81;26309;-58
2021/03/06 02:33:27;;;;;;;2.08;1.87;;;;;;;1.66;73.53;101730.44;1758075;81;25682;-58
2021/03/06 02:35:59;;;;;;;2.40;2.20;;;;;;;1.65;74.66;101723.39;1765373;81;26472;-58
2021/03/06 02:38:30;;;;;;;3.37;2.65;;;;;;;1.56;74.32;101721.48;1763863;79;25834;-57
2021/03/06 02:41:00;;;;;;;2.85;1.92;;;;;;;1.52;74.28;101745.51;1796609;79;27543;-58
2021/03/06 02:43:30;;;;;;;3.45;2.22;;;;;;;1.46;74.43;101741.28;1759276;81;25524;-57
2021/03/06 02:46:00;;;;;;;2.33;1.87;;;;;;;1.47;74.95;101737.71;1745298;80;25728;-57
2021/03/06 02:48:30;;;;;;;3.47;2.20;;;;;;;1.45;74.86;101752.80;1727120;81;26549;-58
2021/03/06 02:50:58;;;;;;;2.90;2.47;;;;;;;1.45;75.12;101760.76;1752345;80;25851;-57
2021/03/06 02:53:26;;;;;;;3.50;2.10;;;;;;;1.48;75.15;101756.66;1752244;81;27541;-57
2021/03/06 02:55:55;;;;;;;3.00;2.62;;;;;;;1.47;75.47;101752.74;1721884;82;25704;-57
2021/03/06 02:58:57;;;;;;;5.90;2.25;;;;;;;1.40;75.32;101759.59;1739706;80;25659;-58
2021/03/06 03:01:36;;;;;;;2.70;2.02;;;;;;;1.36;75.43;101765.90;1750135;81;26468;-58
2021/03/06 03:04:19;;;;;;;4.80;2.27;;;;;;;1.35;75.58;101774.77;1741556;81;25424;-58
2021/03/06 03:06:50;;;;;;;5.12;2.67;;;;;;;1.35;75.51;101772.13;1761885;81;27476;-58
2021/03/06 03:09:23;;;;;;;1.92;1.65;;;;;;;1.35;75.92;101781.88;1782979;79;26100;-58
2021/03/06 03:12:08;;;;;;;2.45;2.20;;;;;;;1.33;76.63;101782.37;1782904;79;25682;-58
2021/03/06 03:15:10;;;;;;;7.65;2.67;;;;;;;1.30;76.34;101786.48;1816623;78;25603;-59
2021/03/06 03:17:45;;;;;;;3.75;2.67;;;;;;;1.21;76.32;101787.63;1799979;78;26060;-58
2021/03/06 03:20:46;;;;;;;4.20;1.55;;;;;;;1.16;76.87;101785.61;1808731;78;27530;-58
2021/03/06 03:23:26;;;;;;;3.87;2.65;;;;;;;1.10;76.98;101793.30;1808575;79;25798;-58
2021/03/06 03:25:58;;;;;;;4.83;3.12;;;;;;;1.04;77.29;101802.30;1807062;79;25771;-57
2021/03/06 03:28:30;;;;;;;2.80;2.33;;;;;;;1.04;77.58;101810.25;1808650;78;25520;-58
2021/03/06 03:31:03;;;;;;;3.25;2.45;;;;;;;1.00;77.89;101826.30;1808769;79;25618;-58
2021/03/06 03:33:35;;;;;;;5.28;2.35;;;;;;;0.96;77.71;101828.62;1808650;78;27518;-57
2021/03/06 03:36:05;;;;;;;4.15;2.05;;;;;;;0.93;78.40;101826.50;1808616;79;25602;-58
2021/03/06 03:38:36;;;;;;;2.35;1.98;;;;;;;0.91;78.54;101836.27;1797951;78;25576;-57
2021/03/06 03:41:09;;;;;;;2.62;2.20;;;;;;;0.91;79.07;101843.34;1773712;80;25585;-57
2021/03/06 03:43:39;;;;;;;4.17;2.33;;;;;;;0.88;78.91;101848.28;1774229;79;25641;-57
2021/03/06 03:46:08;;;;;;;7.45;2.60;;;;;;;0.86;79.30;101844.80;1779224;78;27697;-58
2021/03/06 03:48:39;;;;;;;4.12;2.70;;;;;;;0.83;79.00;101855.52;1808597;78;25724;-58
2021/03/06 03:51:12;;;;;;;3.70;2.22;;;;;;;0.82;79.17;101856.86;1808650;79;25622;-58
2021/03/06 03:53:41;;;;;;;4.70;2.02;;;;;;;0.81;79.31;101865.28;1808450;78;25652;-58
2021/03/06 03:56:11;;;;;;;3.62;2.05;;;;;;;0.75;79.37;101862.36;1802055;79;26115;-57
2021/03/06 03:58:40;;;;;;;1.85;1.55;;;;;;;0.72;79.20;101858.94;1797761;79;27665;-58
2021/03/06 04:01:11;;;;;;;3.17;2.20;;;;;;;0.72;79.23;101862.91;1797850;79;25496;-58
2021/03/06 04:03:40;;;;;;;3.80;2.62;;;;;;;0.70;79.09;101880.18;1793642;79;25458;-58
2021/03/06 04:06:10;;;;;;;5.15;2.27;;;;;;;0.70;79.13;101892.09;1773656;80;25639;-58
2021/03/06 04:08:38;;;;;;;2.52;1.90;;;;;;;0.68;78.91;101893.03;1773821;80;25436;-57
2021/03/06 04:11:07;;;;;;;3.90;2.30;;;;;;;0.68;78.97;101899.22;1773688;80;27541;-58
2021/03/06 04:13:35;;;;;;;4.37;2.52;;;;;;;0.72;78.84;101907.94;1773750;80;25696;-58
2021/03/06 04:16:06;;;;;;;6.65;1.90;;;;;;;0.71;78.86;101917.67;1774249;80;25746;-57
2021/03/06 04:18:35;;;;;;;6.50;3.33;;;;;;;0.68;78.29;101922.16;1774231;80;25638;-57
2021/03/06 04:21:03;;;;;;;7.85;2.62;;;;;;;0.68;78.33;101932.76;1774280;79;25649;-58
2021/03/06 04:23:32;;;;;;;2.45;1.75;;;;;;;0.69;78.52;101926.55;1774327;80;27591;-58
2021/03/06 04:26:00;;;;;;;5.78;3.10;;;;;;;0.70;78.52;101933.59;1773658;80;26106;-58
2021/03/06 04:28:28;;;;;;;3.92;2.47;;;;;;;0.67;78.06;101929.73;1773738;80;25695;-57
2021/03/06 04:30:56;;;;;;;5.60;3.05;;;;;;;0.70;78.39;101928.30;1773680;80;25706;-57
2021/03/06 04:33:24;;;;;;;4.53;2.98;;;;;;;0.67;77.34;101940.32;1773693;79;25459;-58
2021/03/06 04:35:52;;;;;;;4.67;2.80;;;;;;;0.60;77.39;101943.59;1773513;80;27530;-57
2021/03/06 04:38:20;;;;;;;6.47;3.17;;;;;;;0.57;77.63;101948.95;1780065;79;25713;-58
2021/03/06 04:40:50;;;;;;;6.35;3.80;;;;;;;0.52;77.61;101953.06;1805360;78;25714;-58
2021/03/06 04:43:20;;;;;;;6.90;3.08;;;;;;;0.47;77.70;101961.59;1805516;78;25525;-57
2021/03/06 04:45:48;;;;;;;3.72;3.20;;;;;;;0.43;77.58;101963.46;1805489;79;27528;-57
2021/03/06 04:48:17;;;;;;;4.83;2.50;;;;;;;0.46;77.99;101964.68;1805531;79;28028;-58
2021/03/06 04:50:47;;;;;;;4.90;3.02;;;;;;;0.52;78.47;101976.03;1805422;78;25737;-58
2021/03/06 04:53:15;;;;;;;5.45;3.20;;;;;;;0.52;78.11;101992.78;1805314;78;25678;-57
2021/03/06 04:55:44;;;;;;;7.40;3.35;;;;;;;0.50;77.55;101979.17;1800553;79;25678;-57
2021/03/06 04:58:12;;;;;;;7.37;3.12;;;;;;;0.45;77.15;101984.59;1773581;80;25515;-57
2021/03/06 05:00:41;;;;;;;5.05;3.02;;;;;;;0.45;77.20;101994.71;1773674;80;28515;-58
2021/03/06 05:03:10;;;;;;;4.55;2.35;;;;;;;0.52;77.77;101990.13;1773318;79;25582;-58
2021/03/06 05:05:39;;;;;;;4.37;2.65;;;;;;;0.55;77.92;101986.08;1805247;79;25714;-58
2021/03/06 05:08:08;;;;;;;5.25;2.77;;;;;;;0.52;77.37;101995.42;1805358;79;25713;-57
2021/03/06 05:10:36;;;;;;;7.10;2.67;;;;;;;0.54;77.62;102006.85;1805451;79;25685;-57
2021/03/06 05:13:05;;;;;;;6.80;4.00;;;;;;;0.55;77.27;102011.24;1790897;78;28440;-57
2021/03/06 05:15:33;;;;;;;4.70;2.00;;;;;;;0.53;76.95;102012.20;1729466;82;25741;-57
2021/03/06 05:18:02;;;;;;;5.03;2.77;;;;;;;0.51;76.98;102022.81;1768759;81;25687;-57
2021/03/06 05:20:31;;;;;;;7.65;2.85;;;;;;;0.54;76.49;102021.88;1729581;82;25685;-57
2021/03/06 05:22:59;;;;;;;4.97;2.40;;;;;;;0.52;76.53;102028.52;1768494;81;26134;-57
2021/03/06 05:25:27;;;;;;;4.92;2.75;;;;;;;0.54;76.67;102027.18;1768640;80;27546;-57
2021/03/06 05:27:55;;;;;;;6.70;2.87;;;;;;;0.58;76.40;102040.73;1729292;81;25760;-57
2021/03/06 05:30:24;;;;;;;8.43;2.87;;;;;;;0.58;76.10;102039.41;1768655;81;25624;-57
2021/03/06 05:32:52;;;;;;;3.80;2.72;;;;;;;0.59;76.21;102042.48;1728837;81;25515;-57
2021/03/06 05:35:22;;;;;;;6.03;3.37;;;;;;;0.60;75.95;102050.84;1759704;80;25746;-57
2021/03/06 05:37:51;;;;;;;7.83;4.30;;;;;;;0.61;76.10;102053.44;1800327;79;28397;-57
2021/03/06 05:40:23;;;;;;;5.50;2.67;;;;;;;0.60;75.99;102060.11;1768605;81;25588;-57
2021/03/06 05:42:52;;;;;;;7.47;3.20;;;;;;;0.61;75.94;102062.71;1768705;81;25678;-58
2021/03/06 05:45:20;;;;;;;4.47;3.00;;;;;;;0.59;75.94;102076.44;1768745;79;25729;-57
2021/03/06 05:47:48;;;;;;;6.72;2.98;;;;;;;0.61;75.97;102078.59;1768795;81;25648;-58
2021/03/06 05:50:17;;;;;;;4.37;2.70;;;;;;;0.69;75.67;102078.84;1768721;81;27590;-58
2021/03/06 05:52:47;;;;;;;4.65;2.83;;;;;;;0.72;73.84;102087.58;1768627;81;26093;-58
2021/03/06 05:55:18;;;;;;;6.30;3.10;;;;;;;0.76;74.13;102088.40;1768676;81;25969;-58
2021/03/06 05:57:49;;;;;;;5.03;2.87;;;;;;;0.83;73.87;102087.32;1767701;81;25746;-58
2021/03/06 06:00:18;;;;;;;10.72;5.33;;;;;;;0.88;73.53;102089.84;1744328;80;25555;-58
2021/03/06 06:02:52;;;;;;;3.92;2.65;;;;;;;0.93;73.63;102098.09;1746516;80;27541;-58
2021/03/06 06:05:21;;;;;;;5.67;2.90;;;;;;;1.01;73.83;102093.03;1796058;78;25821;-58
2021/03/06 06:07:55;;;;;;;7.92;3.62;;;;;;;1.06;73.62;102098.63;1800264;78;25622;-57
2021/03/06 06:10:25;;;;;;;9.40;3.65;;;;;;;1.12;73.55;102100.21;1800236;79;25714;-57
2021/03/06 06:12:53;;;;;;;4.75;2.90;;;;;;;1.24;73.10;102103.00;1800590;78;25764;-58
2021/03/06 06:15:30;;;;;;;6.75;3.70;;;;;;;1.30;73.24;102114.75;1800226;78;28460;-58
2021/03/06 06:17:59;;;;;;;7.40;3.17;;;;;;;1.38;73.14;102115.88;1800273;79;25478;-57
2021/03/06 06:20:28;;;;;;;8.03;3.72;;;;;;;1.47;72.34;102120.91;1800280;79;25609;-58
2021/03/06 06:23:16;;;;;;;8.68;3.45;;;;;;;1.53;72.25;102124.70;1800264;79;25659;-58
2021/03/06 06:25:47;;;;;;;6.00;3.67;;;;;;;1.56;71.34;102119.32;1800306;79;26140;-58
2021/03/06 06:28:18;;;;;;;7.60;3.45;;;;;;;1.59;70.40;102122.34;1800183;79;27532;-58
2021/03/06 06:31:10;;;;;;;8.43;4.65;;;;;;;1.60;69.92;102129.82;1800211;79;25721;-58
2021/03/06 06:33:39;;;;;;;8.63;3.85;;;;;;;1.60;70.66;102130.71;1800281;79;25639;-58
2021/03/06 06:36:07;;;;;;;7.17;4.30;;;;;;;1.65;70.46;102130.58;1800262;79;25603;-58
2021/03/06 06:38:43;;;;;;;11.10;4.20;;;;;;;1.65;70.16;102140.72;1790644;79;26064;-57
2021/03/06 06:41:13;;;;;;;8.55;4.10;;;;;;;1.67;69.88;102135.36;1768668;79;27600;-57
2021/03/06 06:43:41;;;;;;;12.43;4.20;;;;;;;1.71;69.50;102144.50;1768524;80;25705;-57
2021/03/06 06:46:30;;;;;;;6.72;4.40;;;;;;;1.76;68.68;102139.53;1770764;79;25599;-58
2021/03/06 06:49:01;;;;;;;9.70;4.47;;;;;;;1.76;68.09;102144.84;1768727;81;25753;-57
2021/03/06 06:51:32;;;;;;;11.25;4.03;;;;;;;1.81;68.29;102149.10;1788542;78;25690;-57
2021/03/06 06:54:12;;;;;;;7.08;3.58;;;;;;;1.83;67.69;102150.38;1800271;78;27563;-57
2021/03/06 06:56:43;;;;;;;6.28;4.10;;;;;;;1.86;67.32;102153.80;1782403;79;25484;-57
2021/03/06 06:59:18;;;;;;;6.70;3.75;;;;;;;1.90;66.94;102163.01;1768739;81;25633;-57
2021/03/06 07:01:46;;;;;;;9.18;4.22;;;;;;;1.92;67.22;102163.37;1768579;80;25692;-57
2021/03/06 07:04:15;;;;;;;7.08;3.95;;;;;;;1.96;66.41;102167.69;1781836;79;25772;-57
2021/03/06 07:06:58;;;;;;;12.30;5.67;;;;;;;2.05;66.63;102170.97;1800365;79;27583;-58
2021/03/06 07:09:26;;;;;;;7.72;4.35;;;;;;;2.13;66.70;102181.75;1799963;79;25653;-58
2021/03/06 07:11:54;;;;;;;12.40;4.80;;;;;;;2.24;67.04;102186.72;1800271;79;25564;-58
2021/03/06 07:14:37;;;;;;;8.33;4.72;;;;;;;2.38;66.89;102189.42;1812354;78;25667;-59
2021/03/06 07:17:06;;;;;;;10.30;4.83;;;;;;;2.48;66.00;102197.05;1748554;82;25753;-58
2021/03/06 07:19:39;;;;;;;10.93;4.42;;;;;;;2.57;65.38;102197.67;1829443;78;27529;-58
2021/03/06 07:22:08;;;;;;;7.62;4.03;;;;;;;2.60;63.86;102204.22;1748357;82;25647;-58
2021/03/06 07:24:37;;;;;;;12.18;5.08;;;;;;;2.59;63.12;102207.80;1829299;78;25717;-59
2021/03/06 07:27:06;;;;;;;9.00;5.50;;;;;;;2.61;62.80;102210.80;1829539;78;25758;-58
2021/03/06 07:29:34;;;;;;;7.28;3.33;;;;;;;2.59;62.90;102204.70;1740896;82;25803;-58
2021/03/06 07:32:07;;;;;;;7.05;3.83;;;;;;;2.66;62.47;102207.56;1771703;80;27551;-58
2021/03/06 07:34:36;;;;;;;6.17;3.45;;;;;;;2.70;61.98;102201.69;1716909;81;25734;-57
2021/03/06 07:37:08;;;;;;;7.85;4.05;;;;;;;2.74;62.22;102211.75;1718198;82;25718;-57
2021/03/06 07:39:43;;;;;;;11.90;4.30;;;;;;;2.85;61.93;102212.27;1770599;80;25786;-57
2021/03/06 07:42:44;;;;;;;5.90;3.72;;;;;;;2.88;61.25;102215.28;1761554;81;25717;-58
2021/03/06 07:45:22;;;;;;;40.05;18.62;;;;;;;2.96;60.84;102230.52;1778131;78;27512;-57
2021/03/06 07:47:59;;;;;;;13.05;5.92;;;;;;;3.00;60.20;102231.28;1810429;78;25853;-57
2021/03/06 07:50:31;;;;;;;10.72;4.42;;;;;;;3.08;59.96;102231.45;1734830;82;25750;-57
2021/03/06 07:53:02;;;;;;;6.60;3.98;;;;;;;3.16;58.66;102235.16;1738763;81;25681;-58
2021/03/06 07:55:36;;;;;;;12.03;4.85;;;;;;;3.21;58.32;102245.20;1712427;82;26063;-58
2021/03/06 07:58:12;;;;;;;10.40;4.60;;;;;;;3.25;58.37;102248.14;1752831;80;27533;-57
2021/03/06 08:00:57;;;;;;;9.10;4.40;;;;;;;3.24;58.26;102250.39;1781116;79;25587;-58
2021/03/06 08:03:34;;;;;;;8.35;3.83;;;;;;;3.30;58.70;102250.64;1785132;78;25707;-58
2021/03/06 08:06:07;;;;;;;8.78;4.42;;;;;;;3.38;58.46;102255.24;1791602;79;26187;-58
2021/03/06 08:08:48;;;;;;;7.17;4.80;;;;;;;3.49;57.08;102251.34;1772930;79;25738;-58
2021/03/06 08:11:26;;;;;;;8.90;4.30;;;;;;;3.49;57.10;102256.66;1793849;79;27521;-58
2021/03/06 08:13:57;;;;;;;9.45;4.05;;;;;;;3.57;57.03;102261.25;1763152;79;26375;-57
2021/03/06 08:16:40;;;;;;;8.23;3.72;;;;;;;3.68;56.61;102254.21;1764411;79;25688;-57
2021/03/06 08:19:17;;;;;;;8.85;4.05;;;;;;;3.75;56.27;102251.76;1764818;79;25844;-57
2021/03/06 08:21:49;;;;;;;10.48;4.00;;;;;;;3.83;56.93;102258.12;1762441;80;25747;-57
2021/03/06 08:24:21;;;;;;;8.65;3.95;;;;;;;3.91;56.47;102254.27;1766205;79;27587;-58
2021/03/06 08:27:07;;;;;;;5.62;3.60;;;;;;;3.96;55.30;102266.08;1764693;79;25684;-58
2021/03/06 08:29:55;;;;;;;6.83;3.37;;;;;;;3.99;55.71;102261.09;1762244;79;25664;-57
2021/03/06 08:32:31;;;;;;;8.75;4.12;;;;;;;4.10;55.22;102259.36;1764502;79;26335;-58
2021/03/06 08:35:26;;;;;;;6.83;3.50;;;;;;;4.15;55.28;102270.72;1777726;79;25644;-58
2021/03/06 08:37:54;;;;;;;11.95;4.83;;;;;;;4.19;55.05;102269.66;1793350;79;27518;-57
2021/03/06 08:40:27;;;;;;;9.93;5.08;;;;;;;4.19;55.05;102270.99;1793661;79;26086;-58
2021/03/06 08:42:57;;;;;;;9.18;4.83;;;;;;;4.13;54.58;102284.08;1788533;78;25667;-57
2021/03/06 08:45:28;;;;;;;7.85;4.40;;;;;;;4.05;55.08;102287.05;1768847;79;25781;-57
2021/03/06 08:48:05;;;;;;;8.35;4.05;;;;;;;4.19;56.02;102290.97;1765183;79;25740;-58
2021/03/06 08:50:37;;;;;;;9.53;4.30;;;;;;;4.34;55.67;102286.42;1786912;79;26963;-58
2021/03/06 08:53:15;;;;;;;9.78;3.87;;;;;;;4.61;54.00;102282.28;1773399;79;25694;-58
2021/03/06 08:55:45;;;;;;;6.97;3.47;;;;;;;4.80;54.01;102288.19;1759669;80;25774;-58
2021/03/06 08:58:19;;;;;;;10.23;3.95;;;;;;;4.96;53.13;102282.67;1750716;81;25543;-58
2021/03/06 09:00:54;;;;;;;5.28;2.98;;;;;;;5.12;51.92;102278.88;1762521;81;25675;-58
2021/03/06 09:03:27;;;;;;;5.53;2.72;;;;;;;5.31;50.65;102280.78;1789622;79;28516;-58
2021/03/06 09:05:58;;;;;;;9.30;3.52;;;;;;;5.51;48.29;102276.41;1722907;82;25671;-58
2021/03/06 09:08:28;;;;;;;4.60;2.80;;;;;;;5.73;48.20;102273.22;1728462;82;26023;-58
2021/03/06 09:11:01;;;;;;;5.97;2.65;;;;;;;6.04;47.79;102283.02;1721211;82;25751;-58
2021/03/06 09:13:31;;;;;;;5.30;2.60;;;;;;;6.33;45.32;102274.11;1718520;82;25842;-58
2021/03/06 09:16:04;;;;;;;3.92;1.85;;;;;;;6.59;43.60;102282.25;1727643;82;27533;-58
2021/03/06 09:18:39;;;;;;;5.33;1.90;;;;;;;6.81;40.34;102287.92;1714273;82;25666;-58
2021/03/06 09:21:20;;;;;;;3.62;1.70;;;;;;;6.83;40.94;102286.91;1731100;82;25826;-58
2021/03/06 09:23:54;;;;;;;3.95;1.65;;;;;;;7.12;40.70;102287.28;1724905;80;25779;-58
2021/03/06 09:26:28;;;;;;;3.60;1.62;;;;;;;7.21;38.92;102289.95;1730496;82;25870;-58
2021/03/06 09:29:00;;;;;;;5.40;2.27;;;;;;;7.62;39.05;102285.62;1729683;82;27420;-59
2021/03/06 09:31:31;;;;;;;4.12;1.70;;;;;;;8.12;38.84;102289.73;1716998;82;25762;-58
2021/03/06 09:34:01;;;;;;;3.22;2.10;;;;;;;9.13;36.46;102285.05;1730319;81;25693;-58
2021/03/06 09:36:32;;;;;;;4.53;2.00;;;;;;;10.03;34.90;102275.16;1712819;82;25671;-58
2021/03/06 09:39:05;;;;;;;5.97;2.72;;;;;;;10.77;33.80;102273.64;1732699;81;25737;-58
2021/03/06 09:41:38;;;;;;;5.33;2.42;;;;;;;10.42;33.50;102288.90;1710400;82;27556;-58
2021/03/06 09:44:09;;;;;;;4.97;2.37;;;;;;;10.08;35.00;102295.03;1715273;82;26156;-58
2021/03/06 09:46:39;;;;;;;7.62;1.82;;;;;;;9.34;35.22;102301.72;1784938;79;25441;-58
2021/03/06 09:49:11;;;;;;;3.87;2.45;;;;;;;8.53;34.88;102312.59;1763002;80;26498;-58
2021/03/06 09:51:54;;;;;;;5.62;2.52;;;;;;;7.89;37.23;102307.90;1762884;79;25897;-58
2021/03/06 09:54:26;;;;;;;4.50;2.35;;;;;;;7.44;37.26;102322.75;1762452;80;28559;-58
2021/03/06 09:56:59;;;;;;;2.85;1.75;;;;;;;6.98;37.76;102316.52;1792666;78;26318;-58
2021/03/06 09:59:32;;;;;;;3.70;2.08;;;;;;;6.57;39.01;102318.44;1771080;79;25664;-57
2021/03/06 10:02:11;;;;;;;6.62;2.42;;;;;;;6.33;39.94;102324.45;1779786;79;25631;-58
2021/03/06 10:04:40;;;;;;;11.63;2.75;;;;;;;6.99;39.29;102332.97;1720873;81;25689;-58
2021/03/06 10:07:11;;;;;;;3.50;1.60;;;;;;;8.85;39.23;102321.98;1723905;81;27920;-57
2021/03/06 10:09:59;;;;;;;3.30;1.92;;;;;;;10.30;36.41;102311.19;1707775;82;25448;-58
2021/03/06 10:12:27;;;;;;;4.72;1.98;;;;;;;11.17;33.49;102313.22;1725442;81;25690;-58
2021/03/06 10:14:56;;;;;;;3.35;1.55;;;;;;;11.47;29.83;102313.48;1784311;79;25983;-58
2021/03/06 10:17:25;;;;;;;7.78;2.75;;;;;;;10.95;31.79;102312.44;1779544;79;25742;-58
2021/03/06 10:19:55;;;;;;;8.98;2.17;;;;;;;10.29;32.08;102317.52;1769561;79;28368;-58
2021/03/06 10:22:28;;;;;;;5.62;1.70;;;;;;;9.62;32.49;102322.03;1795654;78;25821;-58
2021/03/06 10:25:03;;;;;;;6.22;1.52;;;;;;;9.34;31.91;102320.52;1773063;79;25786;-58
2021/03/06 10:27:45;;;;;;;6.12;1.62;;;;;;;9.83;31.70;102334.19;1781214;79;25647;-57
2021/03/06 10:30:25;;;;;;;1.62;1.17;;;;;;;9.81;31.23;102329.87;1810685;78;25808;-57
2021/03/06 10:33:01;;;;;;;1.87;1.25;;;;;;;9.97;31.89;102329.31;1788361;78;28427;-59
2021/03/06 10:35:50;;;;;;;5.47;1.40;;;;;;;9.57;30.70;102329.52;1729481;81;25776;-57
2021/03/06 10:38:33;;;;;;;3.00;1.50;;;;;;;10.46;29.86;102332.61;1769089;80;25723;-58
2021/03/06 10:41:05;;;;;;;2.30;1.32;;;;;;;10.18;30.00;102328.92;1734572;80;25586;-58
2021/03/06 10:43:43;;;;;;;4.00;1.60;;;;;;;10.85;30.24;102326.98;1725114;81;25557;-58
2021/03/06 10:46:24;;;;;;;18.62;1.32;;;;;;;11.97;27.33;102321.78;1705377;82;28519;-58
2021/03/06 10:48:56;;;;;;;3.22;1.40;;;;;;;11.97;26.36;102324.95;1714990;82;26191;-57
2021/03/06 10:51:49;;;;;;;12.70;1.50;;;;;;;10.85;26.73;102322.11;1731871;82;25738;-58
2021/03/06 10:54:19;;;;;;;1.80;1.20;;;;;;;9.89;28.42;102330.73;1728653;82;26938;-58
2021/03/06 10:56:48;;;;;;;1.20;1.10;;;;;;;9.08;29.46;102320.22;1716120;82;25773;-59
2021/03/06 10:59:24;;;;;;;1.92;1.35;;;;;;;9.45;29.62;102321.70;1691212;82;27993;-58
2021/03/06 11:01:53;;;;;;;2.58;1.40;;;;;;;9.00;29.82;102317.57;1779064;79;28285;-58
2021/03/06 11:04:38;;;;;;;2.90;1.87;;;;;;;8.32;29.49;102320.82;1777314;78;26390;-57
2021/03/06 11:07:08;;;;;;;9.30;1.62;;;;;;;7.52;30.96;102324.56;1774658;79;25543;-58
2021/03/06 11:09:39;;;;;;;3.52;2.08;;;;;;;7.01;32.75;102334.62;1769564;79;26114;-58
2021/03/06 11:12:30;;;;;;;5.53;2.02;;;;;;;6.73;33.79;102333.27;1780860;78;27517;-58
2021/03/06 11:15:15;;;;;;;7.78;2.05;;;;;;;6.61;34.77;102335.65;1803125;78;25831;-58
2021/03/06 11:17:48;;;;;;;3.22;2.10;;;;;;;6.56;35.04;102332.73;1730188;81;25679;-58
2021/03/06 11:20:21;;;;;;;3.95;2.20;;;;;;;6.38;35.15;102342.46;1734899;82;25543;-58
2021/03/06 11:22:52;;;;;;;7.67;1.90;;;;;;;6.53;35.15;102342.23;1793114;79;25694;-58
2021/03/06 11:25:23;;;;;;;5.72;1.17;;;;;;;6.24;34.28;102347.09;1812618;78;27527;-58
2021/03/06 11:28:03;;;;;;;5.12;1.50;;;;;;;6.04;33.83;102340.47;1774486;80;25984;-58
2021/03/06 11:30:45;;;;;;;3.17;1.30;;;;;;;5.89;34.77;102348.16;1789083;79;25745;-58
2021/03/06 11:33:18;;;;;;;8.73;1.55;;;;;;;5.80;34.62;102347.22;1785747;79;25751;-57
2021/03/06 11:35:50;;;;;;;2.95;2.25;;;;;;;5.69;35.90;102347.70;1775453;78;25771;-57
2021/03/06 11:38:22;;;;;;;7.58;1.87;;;;;;;5.70;36.49;102349.89;1762403;80;27534;-58
2021/03/06 11:40:54;;;;;;;4.85;1.70;;;;;;;5.66;36.61;102352.30;1775035;79;26114;-58
2021/03/06 11:43:25;;;;;;;3.58;1.77;;;;;;;5.70;36.85;102348.10;1769548;79;25738;-58
2021/03/06 11:46:00;;;;;;;4.12;1.80;;;;;;;5.83;35.49;102343.09;1778050;78;25780;-58
2021/03/06 11:48:30;;;;;;;3.00;1.32;;;;;;;5.72;34.81;102340.02;1829466;78;25745;-58
2021/03/06 11:51:00;;;;;;;3.62;1.82;;;;;;;5.49;35.78;102357.89;1829297;78;27526;-57
2021/03/06 11:53:31;;;;;;;5.70;2.75;;;;;;;5.18;39.75;102371.14;1748447;80;25808;-57
2021/03/06 11:56:00;;;;;;;4.90;1.98;;;;;;;4.84;41.40;102361.34;1808715;78;25741;-58
2021/03/06 11:58:28;;;;;;;3.90;1.80;;;;;;;4.56;41.17;102364.20;1813950;78;25759;-58